Time;durP1;ratioP1;P1;durP2;ratioP2;P2;SDS_P1;SDS_P2;PMS_P1;PMS_P2;Temp;Humidity;BMP_temperature;BMP_pressure;BME280_temperature;BME280_humidity;BME280_pressure;Samples;Min_cycle;Max_cycle;Signal;HPM_P1;HPM_P2
2023/02/19 00:00:16;;;;;;;4.30;2.20;;;;;;;7.96;100.00;100030.95;186253;1234;43630;-85
2023/02/19 00:04:38;;;;;;;2.90;2.10;;;;;;;8.05;100.00;100030.80;186371;1233;43737;-85
2023/02/19 00:08:40;;;;;;;2.10;1.80;;;;;;;8.13;100.00;100026.83;186096;1234;43632;-85
2023/02/19 00:12:41;;;;;;;2.70;2.20;;;;;;;8.20;100.00;100032.20;186290;1233;44046;-86
2023/02/19 00:16:43;;;;;;;3.40;2.70;;;;;;;8.17;100.00;100025.17;186349;1236;58037;-86
2023/02/19 00:20:45;;;;;;;5.90;3.30;;;;;;;8.18;100.00;100013.09;186227;1234;44179;-85
2023/02/19 00:24:48;;;;;;;3.60;2.90;;;;;;;8.18;100.00;100009.88;186236;1234;43857;-86
2023/02/19 00:28:52;;;;;;;2.90;1.80;;;;;;;8.05;100.00;100019.16;186211;1234;43925;-86
2023/02/19 00:32:54;;;;;;;6.90;3.90;;;;;;;7.95;100.00;100025.23;186192;1234;43673;-85
2023/02/19 00:36:56;;;;;;;2.60;2.10;;;;;;;7.88;100.00;100028.54;186409;1234;58532;-86
2023/02/19 00:40:59;;;;;;;5.90;3.40;;;;;;;7.78;100.00;100023.48;186216;1234;44565;-86
2023/02/19 00:45:01;;;;;;;4.70;3.00;;;;;;;7.79;100.00;100020.08;186406;1233;43962;-87
2023/02/19 00:49:05;;;;;;;4.70;3.20;;;;;;;7.72;100.00;100017.71;186148;1234;43999;-87
2023/02/19 00:53:06;;;;;;;5.30;3.70;;;;;;;7.71;100.00;100008.98;186395;1235;44091;-86
2023/02/19 00:57:08;;;;;;;4.60;3.40;;;;;;;7.62;100.00;100010.52;186266;1233;58148;-87
2023/02/19 01:01:11;;;;;;;5.80;4.80;;;;;;;7.63;100.00;100003.58;186401;1237;44285;-86
2023/02/19 01:05:14;;;;;;;12.00;7.20;;;;;;;7.62;100.00;100003.13;186256;1234;44113;-87
2023/02/19 01:09:15;;;;;;;5.50;4.70;;;;;;;7.56;100.00;100002.80;186132;1234;43852;-83
2023/02/19 01:13:18;;;;;;;8.20;7.20;;;;;;;7.60;100.00;100000.95;186388;1234;43756;-86
2023/02/19 01:17:20;;;;;;;7.50;5.20;;;;;;;7.67;100.00;99988.27;186222;1234;58068;-87
2023/02/19 01:21:25;;;;;;;4.80;4.20;;;;;;;7.77;100.00;99979.55;186343;1234;44017;-88
2023/02/19 01:25:27;;;;;;;3.60;3.00;;;;;;;7.85;100.00;99976.35;186535;1234;43629;-87
2023/02/19 01:29:31;;;;;;;3.80;3.20;;;;;;;7.85;100.00;99974.35;186202;1235;44070;-87
2023/02/19 01:33:33;;;;;;;4.70;4.00;;;;;;;7.88;100.00;99966.03;186324;1233;43643;-87
2023/02/19 01:37:36;;;;;;;6.60;4.00;;;;;;;7.85;100.00;99960.13;186240;1233;57948;-87
2023/02/19 01:41:41;;;;;;;2.80;2.20;;;;;;;7.78;100.00;99954.39;186219;1234;43651;-87
2023/02/19 01:45:44;;;;;;;7.20;4.30;;;;;;;7.78;100.00;99941.92;186539;1234;43843;-87
2023/02/19 01:49:55;;;;;;;5.50;3.70;;;;;;;7.78;100.00;99930.25;186398;1237;43656;-87
2023/02/19 01:54:01;;;;;;;4.90;4.50;;;;;;;7.81;100.00;99917.45;186232;1234;43637;-86
2023/02/19 01:58:03;;;;;;;7.90;5.00;;;;;;;7.80;100.00;99913.86;186388;1234;59182;-86
2023/02/19 02:02:05;;;;;;;5.20;4.70;;;;;;;7.79;100.00;99911.11;186223;1234;43904;-86
2023/02/19 02:06:32;;;;;;;4.70;3.00;;;;;;;7.81;100.00;99906.92;186272;1234;43995;-86
2023/02/19 02:10:33;;;;;;;6.30;4.20;;;;;;;7.93;100.00;99902.48;186552;1235;44051;-86
2023/02/19 02:14:40;;;;;;;3.70;3.30;;;;;;;8.02;100.00;99905.29;186541;1233;43653;-85
2023/02/19 02:18:47;;;;;;;;;;;;;;;8.08;100.00;99895.85;186287;1234;58061;-86
2023/02/19 02:23:08;;;;;;;4.20;3.80;;;;;;;8.09;100.00;99887.80;186617;1233;43672;-86
2023/02/19 02:27:12;;;;;;;5.10;2.80;;;;;;;8.02;100.00;99897.90;186516;1234;43637;-87
2023/02/19 02:31:24;;;;;;;6.10;4.30;;;;;;;8.00;100.00;99890.83;186620;1233;43823;-84
2023/02/19 02:35:51;;;;;;;7.10;4.90;;;;;;;7.92;100.00;99889.49;186348;1234;43650;-86
2023/02/19 02:39:57;;;;;;;8.30;3.30;;;;;;;7.90;100.00;99884.88;186397;1233;59754;-87
2023/02/19 02:43:59;;;;;;;7.10;5.70;;;;;;;7.67;100.00;99879.33;186108;1234;44080;-86
2023/02/19 02:48:10;;;;;;;5.60;4.10;;;;;;;7.57;100.00;99878.91;186405;1234;43632;-86
2023/02/19 02:55:01;;;;;;;7.10;6.40;;;;;;;7.56;100.00;99881.92;186614;1233;43896;-87
2023/02/19 02:56:40;;;;;;;13.60;9.40;;;;;;;7.55;100.00;99870.04;186209;1234;43699;-86
2023/02/19 03:09:42;;;;;;;8.00;5.30;;;;;;;7.54;100.00;99853.35;186362;1234;43828;-89
2023/02/19 03:22:35;;;;;;;6.60;6.00;;;;;;;7.82;100.00;99825.11;186460;1233;58533;-88
2023/02/19 03:26:39;;;;;;;11.80;8.00;;;;;;;7.84;100.00;99833.77;186286;1234;43660;-88
2023/02/19 03:30:47;;;;;;;9.30;7.30;;;;;;;7.90;100.00;99833.67;186336;1234;43692;-88
2023/02/19 03:34:56;;;;;;;9.20;6.30;;;;;;;7.96;100.00;99838.87;186239;1237;44058;-88
2023/02/19 03:39:02;;;;;;;6.70;5.20;;;;;;;7.85;100.00;99842.35;186241;1234;43771;-89
2023/02/19 03:43:19;;;;;;;7.20;5.70;;;;;;;7.76;100.00;99838.92;185486;1234;943823;-89
2023/02/19 03:47:31;;;;;;;5.50;4.40;;;;;;;7.77;100.00;99837.98;186183;1235;43891;-87
2023/02/19 03:51:48;;;;;;;7.20;4.80;;;;;;;7.75;100.00;99840.27;186424;1235;44008;-86
2023/02/19 03:56:12;;;;;;;12.40;6.00;;;;;;;7.77;100.00;99836.97;186303;1234;44023;-88
2023/02/19 04:00:31;;;;;;;8.00;4.20;;;;;;;7.73;100.00;99828.42;186170;1235;44036;-88
2023/02/19 04:04:47;;;;;;;4.80;4.20;;;;;;;7.71;100.00;99828.80;186244;1235;59275;-88
2023/02/19 04:08:54;;;;;;;5.40;4.90;;;;;;;7.71;100.00;99830.67;186405;1235;44031;-88
2023/02/19 04:13:05;;;;;;;5.10;4.00;;;;;;;7.72;100.00;99829.70;186458;1233;43991;-88
2023/02/19 04:17:34;;;;;;;5.80;4.90;;;;;;;7.74;100.00;99823.28;186401;1234;44047;-89
2023/02/19 04:21:38;;;;;;;3.80;2.90;;;;;;;7.80;100.00;99814.98;186454;1233;43939;-89
2023/02/19 04:25:44;;;;;;;6.00;3.90;;;;;;;7.77;100.00;99813.46;186233;1235;58172;-89
2023/02/19 04:29:47;;;;;;;4.40;3.40;;;;;;;7.82;100.00;99814.52;186336;1233;43646;-89
2023/02/19 04:33:48;;;;;;;5.20;3.70;;;;;;;7.82;100.00;99812.94;186283;1235;44065;-89
2023/02/19 04:37:50;;;;;;;4.20;2.60;;;;;;;7.78;100.00;99814.10;186302;1235;44213;-88
2023/02/19 04:41:52;;;;;;;3.70;3.40;;;;;;;7.80;100.00;99809.68;186427;1235;43578;-89
2023/02/19 04:46:00;;;;;;;4.50;3.40;;;;;;;7.90;100.00;99807.41;186291;1235;59486;-88
2023/02/19 04:50:02;;;;;;;3.50;2.60;;;;;;;7.95;100.00;99806.96;186637;1234;43896;-89
2023/02/19 04:54:05;;;;;;;6.20;3.70;;;;;;;7.96;100.00;99807.61;186587;1234;43776;-89
2023/02/19 04:58:07;;;;;;;3.90;3.30;;;;;;;7.86;100.00;99799.21;186300;1233;43674;-89
2023/02/19 05:02:10;;;;;;;5.50;3.40;;;;;;;7.77;100.00;99804.14;186215;1234;44510;-89
2023/02/19 05:06:13;;;;;;;4.80;3.50;;;;;;;7.74;100.00;99800.48;186318;1235;58014;-89
2023/02/19 05:10:15;;;;;;;7.10;5.00;;;;;;;7.67;100.00;99790.41;186139;1233;43853;-88
2023/02/19 05:14:18;;;;;;;5.80;4.40;;;;;;;7.65;100.00;99789.85;186582;1234;43601;-89
2023/02/19 05:18:19;;;;;;;4.90;3.60;;;;;;;7.64;100.00;99781.32;186333;1233;43993;-88
2023/02/19 05:22:21;;;;;;;5.30;3.80;;;;;;;7.61;100.00;99774.80;186187;1233;43688;-88
2023/02/19 05:26:23;;;;;;;5.70;4.20;;;;;;;7.60;100.00;99775.06;186277;1233;58021;-89
2023/02/19 05:30:25;;;;;;;5.00;3.20;;;;;;;7.62;100.00;99770.14;186113;1233;44035;-90
2023/02/19 05:34:27;;;;;;;3.80;3.30;;;;;;;7.57;100.00;99776.49;186506;1234;43665;-88
2023/02/19 05:38:29;;;;;;;4.20;3.80;;;;;;;7.59;100.00;99772.83;186361;1234;43990;-88
2023/02/19 05:42:31;;;;;;;6.40;4.40;;;;;;;7.57;100.00;99768.80;186582;1235;43658;-88
2023/02/19 05:46:33;;;;;;;7.70;5.50;;;;;;;7.58;100.00;99767.94;186227;1233;58101;-88
2023/02/19 05:50:36;;;;;;;6.90;4.40;;;;;;;7.55;100.00;99779.12;186365;1234;43695;-88
2023/02/19 05:54:40;;;;;;;6.20;5.60;;;;;;;7.55;100.00;99776.12;186462;1234;43786;-88
2023/02/19 05:58:43;;;;;;;6.90;4.90;;;;;;;7.62;100.00;99777.56;186309;1233;43599;-87
2023/02/19 06:02:46;;;;;;;6.00;4.50;;;;;;;7.63;100.00;99773.94;186402;1235;43936;-88
2023/02/19 06:06:49;;;;;;;5.80;4.80;;;;;;;7.67;100.00;99772.95;186428;1236;59700;-89
2023/02/19 06:10:51;;;;;;;6.80;5.00;;;;;;;7.73;100.00;99773.39;186265;1235;44108;-89
2023/02/19 06:14:53;;;;;;;7.30;4.30;;;;;;;7.72;100.00;99775.19;186424;1234;43740;-87
2023/02/19 06:18:56;;;;;;;7.50;5.50;;;;;;;7.76;100.00;99775.26;186268;1234;44105;-88
2023/02/19 06:22:58;;;;;;;4.70;4.10;;;;;;;7.73;100.00;99780.08;186390;1233;43767;-89
2023/02/19 06:27:03;;;;;;;6.90;5.20;;;;;;;7.70;100.00;99792.83;186262;1235;59949;-89
2023/02/19 06:31:07;;;;;;;5.80;4.40;;;;;;;7.76;100.00;99796.95;186224;1234;43672;-89
2023/02/19 06:35:10;;;;;;;3.10;2.40;;;;;;;7.77;100.00;99801.98;186248;1235;44006;-89
2023/02/19 06:39:12;;;;;;;3.20;2.50;;;;;;;7.71;100.00;99802.98;186398;1234;43872;-88
2023/02/19 06:43:14;;;;;;;2.70;2.50;;;;;;;7.71;100.00;99800.67;186280;1233;44004;-88
2023/02/19 06:47:17;;;;;;;3.70;3.10;;;;;;;7.70;100.00;99807.70;186250;1235;60417;-87
2023/02/19 06:51:22;;;;;;;2.40;1.60;;;;;;;7.65;100.00;99818.10;186295;1235;44000;-88
2023/02/19 06:55:24;;;;;;;1.90;1.40;;;;;;;7.56;100.00;99830.23;186251;1233;44827;-87
2023/02/19 06:59:27;;;;;;;3.70;2.60;;;;;;;7.60;100.00;99829.05;186265;1235;43825;-86
2023/02/19 07:03:29;;;;;;;2.60;2.20;;;;;;;7.61;100.00;99828.79;186540;1234;43684;-87
2023/02/19 07:07:32;;;;;;;5.00;3.70;;;;;;;7.50;100.00;99846.44;186339;1235;57865;-86
2023/02/19 07:11:35;;;;;;;3.10;2.80;;;;;;;7.34;100.00;99859.55;186220;1234;44086;-86
2023/02/19 07:15:37;;;;;;;4.50;4.10;;;;;;;7.18;100.00;99870.27;186416;1233;43594;-86
2023/02/19 07:19:39;;;;;;;6.00;3.00;;;;;;;7.00;100.00;99882.33;186279;1233;43941;-87
2023/02/19 08:21:17;;;;;;;2.90;1.10;;;;;;;4.58;100.00;100016.16;186760;1234;43754;-88
2023/02/19 08:29:51;;;;;;;1.70;0.90;;;;;;;4.48;100.00;100019.15;186883;1233;43759;-90
2023/02/19 08:34:16;;;;;;;1.10;0.90;;;;;;;4.44;100.00;100030.50;186672;1234;44122;-90
2023/02/19 08:38:18;;;;;;;2.10;1.90;;;;;;;4.41;100.00;100039.27;186370;1234;57409;-89
2023/02/19 08:42:23;;;;;;;1.50;0.80;;;;;;;4.45;100.00;100039.58;186227;1234;43879;-89
2023/02/19 08:46:25;;;;;;;1.30;1.20;;;;;;;4.50;100.00;100055.81;186231;1234;43727;-89
2023/02/19 08:50:27;;;;;;;2.30;1.00;;;;;;;4.58;100.00;100057.43;186364;1234;44025;-88
2023/02/19 08:54:29;;;;;;;1.20;1.10;;;;;;;4.72;100.00;100064.81;186315;1234;43683;-87
2023/02/19 08:58:31;;;;;;;3.20;1.50;;;;;;;4.78;100.00;100071.30;186249;1237;58714;-86
2023/02/19 09:02:34;;;;;;;1.30;1.20;;;;;;;4.72;100.00;100074.45;186238;1234;43912;-87
2023/02/19 09:06:36;;;;;;;0.80;0.80;;;;;;;4.83;100.00;100080.84;186407;1233;43639;-86
2023/02/19 09:10:41;;;;;;;2.50;1.00;;;;;;;4.87;100.00;100085.90;186211;1235;44212;-86
2023/02/19 09:14:42;;;;;;;2.30;1.00;;;;;;;4.83;100.00;100098.42;186321;1234;43924;-85
2023/02/19 09:18:44;;;;;;;2.50;2.30;;;;;;;4.87;100.00;100102.41;186394;1234;59361;-85
2023/02/19 09:22:46;;;;;;;3.00;1.10;;;;;;;4.90;100.00;100109.41;186357;1234;43713;-85
2023/02/19 09:26:49;;;;;;;1.30;1.10;;;;;;;4.86;100.00;100115.08;186219;1237;43854;-85
2023/02/19 09:30:50;;;;;;;1.10;1.00;;;;;;;4.78;100.00;100127.00;186631;1233;43633;-85
2023/02/19 09:34:52;;;;;;;1.20;1.10;;;;;;;4.81;100.00;100137.90;186333;1235;43767;-84
2023/02/19 09:38:54;;;;;;;4.50;1.80;;;;;;;4.93;100.00;100135.40;186447;1234;57389;-82
2023/02/19 09:42:56;;;;;;;2.20;1.60;;;;;;;4.99;100.00;100147.16;186170;1233;44126;-83
2023/02/19 09:46:59;;;;;;;3.90;2.60;;;;;;;5.12;100.00;100143.95;186116;1235;43897;-82
2023/02/19 09:51:02;;;;;;;1.70;1.50;;;;;;;5.03;100.00;100152.22;186140;1234;43997;-83
2023/02/19 09:55:36;;;;;;;4.50;1.80;;;;;;;5.08;100.00;100155.11;186128;1235;44007;-84
2023/02/19 09:59:57;;;;;;;3.20;2.50;;;;;;;5.21;100.00;100164.69;186372;1234;58301;-83
2023/02/19 10:03:59;;;;;;;4.40;1.60;;;;;;;5.24;100.00;100179.24;186315;1235;43747;-83
2023/02/19 10:08:06;;;;;;;5.30;2.50;;;;;;;5.30;100.00;100188.57;186710;1233;43577;-83
2023/02/19 10:12:15;;;;;;;2.20;1.10;;;;;;;5.31;100.00;100201.85;186643;1234;43707;-83
2023/02/19 10:16:23;;;;;;;5.70;1.70;;;;;;;5.29;100.00;100214.83;186626;1235;43696;-83
2023/02/19 10:20:26;;;;;;;2.00;1.20;;;;;;;5.11;100.00;100222.04;186135;1233;58020;-83
2023/02/19 10:24:29;;;;;;;1.50;0.90;;;;;;;4.97;100.00;100228.33;186390;1235;44059;-82
2023/02/19 10:28:35;;;;;;;1.10;0.80;;;;;;;4.96;100.00;100240.30;186111;1235;43699;-83
2023/02/19 10:32:40;;;;;;;1.80;1.00;;;;;;;4.96;100.00;100234.89;186259;1233;43943;-85
2023/02/19 10:36:46;;;;;;;36.30;19.70;;;;;;;5.10;100.00;100236.21;186270;1233;43744;-84
2023/02/19 10:40:47;;;;;;;12.40;9.40;;;;;;;5.20;100.00;100243.14;186468;1237;59542;-82
2023/02/19 10:45:00;;;;;;;4.10;1.70;;;;;;;5.37;100.00;100244.78;186049;1237;44199;-83
2023/02/19 10:49:18;;;;;;;6.80;5.30;;;;;;;5.48;100.00;100253.45;186341;1234;43971;-84
2023/02/19 10:53:24;;;;;;;7.30;3.60;;;;;;;5.62;100.00;100266.15;185961;1234;44049;-84
2023/02/19 10:57:32;;;;;;;;;;;;;;;5.65;100.00;100267.71;186100;1234;44057;-84
2023/02/19 11:01:34;;;;;;;115.60;57.20;;;;;;;5.66;100.00;100272.77;186327;1235;57614;-84
2023/02/19 11:05:38;;;;;;;2.90;1.80;;;;;;;5.58;100.00;100273.95;186440;1234;43630;-85
2023/02/19 11:09:44;;;;;;;17.70;8.70;;;;;;;5.64;100.00;100269.70;186352;1235;43730;-85
2023/02/19 11:13:46;;;;;;;1.50;1.10;;;;;;;5.76;100.00;100270.52;186187;1235;43880;-82
2023/02/19 11:17:57;;;;;;;5.90;1.20;;;;;;;5.83;99.97;100270.11;186183;1235;43920;-84
2023/02/19 11:22:00;;;;;;;0.90;0.90;;;;;;;5.89;100.00;100272.41;186154;1233;57770;-83
2023/02/19 11:26:06;;;;;;;2.20;1.90;;;;;;;5.79;100.00;100272.99;186182;1233;43789;-84
2023/02/19 11:30:44;;;;;;;2.50;0.70;;;;;;;5.68;99.59;100277.55;186208;1233;43953;-84
2023/02/19 11:34:47;;;;;;;5.00;0.80;;;;;;;5.68;99.28;100285.48;185146;1241;43847;-83
2023/02/19 11:38:48;;;;;;;1.40;1.10;;;;;;;5.59;97.24;100290.58;184981;1241;43716;-83
2023/02/19 11:43:02;;;;;;;1.20;1.00;;;;;;;5.62;99.30;100295.49;184998;1241;59291;-83
2023/02/19 11:47:25;;;;;;;1.70;1.00;;;;;;;5.74;100.00;100293.70;184959;1241;44152;-84
2023/02/19 11:51:37;;;;;;;2.10;0.90;;;;;;;5.64;94.19;100301.55;185171;1241;44021;-83
2023/02/19 11:55:56;;;;;;;3.30;1.70;;;;;;;5.48;94.51;100305.33;185045;1241;44052;-83
2023/02/19 12:00:23;;;;;;;3.80;1.20;;;;;;;5.66;97.70;100309.37;184928;1241;43743;-84
2023/02/19 12:04:34;;;;;;;7.30;2.70;;;;;;;5.89;96.07;100307.59;185082;1241;59193;-84
2023/02/19 12:08:38;;;;;;;5.20;1.30;;;;;;;6.05;92.74;100313.64;185517;1235;43704;-84
2023/02/19 12:13:04;;;;;;;2.70;1.10;;;;;;;6.12;92.12;100319.77;186223;1234;44104;-82
2023/02/19 12:17:20;;;;;;;3.00;0.50;;;;;;;6.10;92.20;100327.80;186232;1235;43970;-84
2023/02/19 12:21:42;;;;;;;3.40;1.90;;;;;;;5.93;84.06;100336.21;186162;1233;43891;-83
2023/02/19 12:25:58;;;;;;;2.30;0.80;;;;;;;5.98;85.89;100338.90;186221;1233;57819;-84
2023/02/19 12:30:12;;;;;;;;;;;;;;;6.24;90.64;100336.98;186259;1233;44052;-84
2023/02/19 12:34:29;;;;;;;0.70;0.50;;;;;;;6.28;88.32;100348.16;186243;1233;43763;-85
2023/02/19 12:38:42;;;;;;;1.50;0.70;;;;;;;6.17;86.51;100358.55;186362;1233;43671;-82
2023/02/19 12:42:50;;;;;;;2.30;1.10;;;;;;;6.27;87.67;100353.70;186147;1235;43762;-83
2023/02/19 12:46:57;;;;;;;2.90;1.00;;;;;;;6.40;86.18;100355.17;186154;1234;57173;-82
2023/02/19 12:51:08;;;;;;;2.30;0.80;;;;;;;6.49;86.12;100348.63;186040;1234;44040;-84
2023/02/19 12:55:31;;;;;;;2.60;1.30;;;;;;;6.56;83.98;100354.02;186149;1234;43612;-84
2023/02/19 12:59:42;;;;;;;3.50;1.00;;;;;;;6.66;84.92;100367.48;186101;1233;44114;-82
2023/02/19 13:03:59;;;;;;;8.40;2.10;;;;;;;6.49;81.87;100366.97;186533;1233;43764;-84
2023/02/19 13:08:11;;;;;;;4.40;1.40;;;;;;;6.47;82.22;100378.20;186346;1235;59404;-87
2023/02/19 13:12:20;;;;;;;3.90;1.10;;;;;;;6.48;79.87;100370.75;186107;1235;43652;-85
2023/02/19 13:16:23;;;;;;;1.60;1.10;;;;;;;6.44;78.52;100379.96;186131;1234;44046;-85
2023/02/19 13:20:35;;;;;;;3.80;1.90;;;;;;;6.41;79.30;100384.00;186094;1234;43876;-84
2023/02/19 13:24:42;;;;;;;4.30;1.70;;;;;;;6.36;78.97;100375.52;186121;1234;43734;-83
2023/02/19 13:28:53;;;;;;;2.60;1.30;;;;;;;6.28;79.44;100386.73;185892;1235;58995;-83
2023/02/19 13:33:10;;;;;;;12.60;1.40;;;;;;;6.32;78.98;100383.02;186196;1233;44156;-85
2023/02/19 13:37:14;;;;;;;0.60;0.60;;;;;;;6.32;77.86;100375.75;186207;1233;43893;-85
2023/02/19 13:41:26;;;;;;;2.50;1.40;;;;;;;6.34;78.75;100382.02;186208;1233;44108;-85
2023/02/19 13:45:36;;;;;;;1.20;1.00;;;;;;;6.55;81.94;100388.61;186099;1234;43683;-85
2023/02/19 13:49:40;;;;;;;2.60;1.20;;;;;;;6.69;80.13;100384.55;186200;1237;57904;-86
2023/02/19 13:53:46;;;;;;;1.60;1.00;;;;;;;6.71;79.03;100389.37;186277;1234;44235;-85
2023/02/19 13:57:48;;;;;;;3.50;1.10;;;;;;;6.63;77.09;100393.95;186332;1233;44202;-86
2023/02/19 14:01:50;;;;;;;0.90;0.90;;;;;;;6.56;76.74;100401.05;186226;1233;43851;-84
2023/02/19 14:06:01;;;;;;;10.30;2.60;;;;;;;6.43;77.96;100416.65;186308;1233;44024;-84
2023/02/19 14:10:09;;;;;;;7.30;1.10;;;;;;;6.45;78.95;100420.58;186081;1233;59077;-85
2023/02/19 14:14:38;;;;;;;2.30;1.40;;;;;;;6.56;77.81;100422.89;186138;1233;44003;-85
2023/02/19 14:18:42;;;;;;;4.80;3.90;;;;;;;6.54;76.08;100422.33;186254;1233;44252;-85
2023/02/19 14:22:55;;;;;;;19.60;11.30;;;;;;;6.58;78.74;100436.02;186079;1236;43771;-85
2023/02/19 14:26:59;;;;;;;6.70;2.10;;;;;;;6.57;78.00;100447.51;186392;1233;43910;-85
2023/02/19 14:31:27;;;;;;;1.50;0.60;;;;;;;6.50;77.79;100451.66;186168;1233;57901;-84
2023/02/19 14:35:40;;;;;;;5.70;1.20;;;;;;;6.33;77.03;100467.80;186381;1233;44148;-85
2023/02/19 14:39:43;;;;;;;4.30;2.10;;;;;;;6.33;77.76;100472.23;186032;1233;44048;-85
2023/02/19 14:43:49;;;;;;;3.90;1.50;;;;;;;6.20;74.98;100478.29;185995;1233;43775;-86
2023/02/19 14:47:55;;;;;;;3.40;1.20;;;;;;;6.24;74.67;100478.91;185972;1233;44506;-86
2023/02/19 14:52:02;;;;;;;3.80;1.70;;;;;;;6.35;74.29;100480.89;186109;1237;59371;-86
2023/02/19 14:56:13;;;;;;;4.10;1.30;;;;;;;6.23;72.63;100485.66;186047;1233;43766;-86
2023/02/19 15:00:28;;;;;;;2.70;1.00;;;;;;;6.03;72.72;100485.48;185950;1234;43747;-86
2023/02/19 15:04:35;;;;;;;5.00;1.10;;;;;;;5.85;73.68;100495.66;186089;1233;43838;-87
2023/02/19 15:08:41;;;;;;;3.10;1.50;;;;;;;5.80;74.21;100492.05;186110;1233;43719;-86
2023/02/19 15:12:52;;;;;;;3.10;1.40;;;;;;;5.84;75.24;100505.70;186193;1233;59527;-87
2023/02/19 15:16:59;;;;;;;22.40;2.30;;;;;;;5.72;74.31;100520.86;186170;1233;43836;-85
2023/02/19 15:21:04;;;;;;;2.20;0.90;;;;;;;5.76;75.17;100522.39;186276;1234;44207;-86
2023/02/19 15:25:06;;;;;;;7.40;3.40;;;;;;;5.60;74.70;100518.17;186327;1233;43794;-86
2023/02/19 15:29:11;;;;;;;4.80;2.00;;;;;;;5.56;75.35;100529.31;186196;1234;44028;-86
2023/02/19 15:33:18;;;;;;;8.60;1.90;;;;;;;5.54;75.06;100526.80;185990;1236;59439;-85
2023/02/19 15:37:22;;;;;;;3.70;1.60;;;;;;;5.46;74.68;100535.66;185998;1233;44240;-84
2023/02/19 15:41:27;;;;;;;4.60;1.90;;;;;;;5.38;78.82;100540.33;186001;1234;43989;-84
2023/02/19 15:45:40;;;;;;;3.60;1.60;;;;;;;5.26;78.31;100540.64;185945;1234;43865;-84
2023/02/19 15:49:48;;;;;;;4.00;2.20;;;;;;;5.16;77.43;100555.05;186228;1234;43708;-85
2023/02/19 15:53:57;;;;;;;6.40;3.80;;;;;;;5.08;77.68;100561.87;185891;1234;60270;-84
2023/02/19 15:58:29;;;;;;;8.70;2.50;;;;;;;5.03;78.09;100570.77;185917;1234;43808;-86
2023/02/19 16:02:32;;;;;;;5.80;3.00;;;;;;;4.98;77.72;100576.42;186385;1233;43762;-86
2023/02/19 16:06:50;;;;;;;3.00;2.30;;;;;;;4.91;78.32;100584.90;186069;1234;43775;-85
2023/02/19 16:10:54;;;;;;;4.20;1.90;;;;;;;4.83;78.92;100588.31;186103;1234;44055;-85
2023/02/19 16:14:56;;;;;;;6.00;3.00;;;;;;;4.69;78.85;100594.96;186352;1233;59248;-83
2023/02/19 16:18:58;;;;;;;5.50;3.30;;;;;;;4.70;79.67;100596.92;186061;1234;44040;-84
2023/02/19 16:23:03;;;;;;;3.40;2.80;;;;;;;4.62;79.70;100603.46;185920;1234;43772;-84
2023/02/19 16:27:06;;;;;;;1.90;1.50;;;;;;;4.55;80.44;100608.54;185979;1234;43809;-84
2023/02/19 16:31:12;;;;;;;4.70;1.70;;;;;;;4.49;80.67;100622.40;186578;1233;43025;-85
2023/02/19 16:35:40;;;;;;;3.50;1.80;;;;;;;4.42;81.60;100630.45;186083;1233;59426;-84
2023/02/19 16:39:42;;;;;;;10.80;4.30;;;;;;;4.40;82.43;100626.85;185941;1233;43664;-85
2023/02/19 16:43:44;;;;;;;4.30;3.00;;;;;;;4.36;83.47;100629.52;186253;1233;44196;-84
2023/02/19 16:47:49;;;;;;;5.20;3.40;;;;;;;4.34;83.01;100635.07;185974;1233;43751;-86
2023/02/19 16:51:53;;;;;;;6.60;4.00;;;;;;;4.29;82.58;100635.86;185915;1233;43748;-86
2023/02/19 16:55:55;;;;;;;7.60;4.20;;;;;;;4.25;82.61;100645.38;186061;1234;58300;-87
2023/02/19 16:59:57;;;;;;;5.90;3.80;;;;;;;4.16;84.95;100661.25;186038;1233;43969;-86
2023/02/19 17:04:03;;;;;;;6.30;3.90;;;;;;;3.88;87.97;100674.35;186018;1234;44050;-87
2023/02/19 17:08:16;;;;;;;8.70;5.10;;;;;;;3.65;90.03;100679.06;186210;1233;43698;-88
2023/02/19 17:12:22;;;;;;;14.40;5.60;;;;;;;3.52;91.29;100687.22;186101;1234;43875;-87
2023/02/19 17:16:30;;;;;;;14.90;7.10;;;;;;;3.43;92.31;100690.63;185860;1234;59362;-88
2023/02/19 17:20:34;;;;;;;12.70;5.90;;;;;;;3.39;92.76;100690.93;186251;1233;43912;-87
2023/02/19 17:24:38;;;;;;;8.60;5.10;;;;;;;3.39;93.20;100693.24;186089;1234;43805;-88
2023/02/19 17:28:42;;;;;;;11.30;4.50;;;;;;;3.38;93.76;100692.61;186054;1233;43990;-88
2023/02/19 17:32:44;;;;;;;10.40;5.80;;;;;;;3.32;94.65;100704.23;186191;1234;44005;-89
2023/02/19 17:36:47;;;;;;;9.90;5.70;;;;;;;3.37;94.99;100708.96;186252;1233;60234;-89
2023/02/19 17:40:49;;;;;;;11.90;6.50;;;;;;;3.38;94.88;100718.36;186003;1234;43857;-88
2023/02/19 17:44:52;;;;;;;16.30;7.90;;;;;;;3.46;93.77;100725.53;186062;1234;44010;-88
2023/02/19 17:48:55;;;;;;;15.30;6.10;;;;;;;3.50;93.12;100730.63;186252;1233;43809;-88
2023/02/19 17:52:59;;;;;;;22.90;7.10;;;;;;;3.59;92.44;100735.14;186165;1234;43928;-87
2023/02/19 17:57:02;;;;;;;7.30;5.50;;;;;;;3.63;92.25;100740.39;186035;1233;58672;-87
2023/02/19 18:01:04;;;;;;;6.70;4.30;;;;;;;3.72;92.34;100744.54;185973;1234;43894;-88
2023/02/19 18:05:07;;;;;;;18.30;9.60;;;;;;;3.75;92.26;100744.77;185917;1233;43736;-88
2023/02/19 18:09:14;;;;;;;8.20;5.40;;;;;;;3.73;92.10;100749.76;186023;1233;43741;-89
2023/02/19 18:13:16;;;;;;;15.50;6.90;;;;;;;3.75;92.04;100751.45;186040;1233;43818;-89
2023/02/19 18:17:19;;;;;;;13.70;6.20;;;;;;;3.63;92.68;100756.19;186027;1234;58515;-89
2023/02/19 18:21:23;;;;;;;10.00;5.30;;;;;;;3.48;93.32;100760.69;185977;1234;43763;-85
2023/02/19 18:25:26;;;;;;;8.60;4.60;;;;;;;3.38;93.51;100765.71;186106;1233;43805;-85
2023/02/19 18:29:29;;;;;;;16.50;5.50;;;;;;;3.34;93.59;100775.36;186053;1234;44018;-86
2023/02/19 18:33:33;;;;;;;7.60;4.90;;;;;;;3.29;93.42;100777.31;186170;1235;43749;-86
2023/02/19 18:37:35;;;;;;;10.70;5.20;;;;;;;3.27;93.71;100784.41;186090;1234;58125;-88
2023/02/19 18:41:37;;;;;;;8.10;4.00;;;;;;;3.27;93.96;100796.14;186216;1234;43830;-87
2023/02/19 18:45:39;;;;;;;10.10;4.70;;;;;;;3.21;94.27;100798.14;186349;1233;43731;-85
2023/02/19 18:49:49;;;;;;;6.70;4.60;;;;;;;3.19;94.11;100802.09;186200;1233;43829;-89
2023/02/19 18:53:51;;;;;;;7.50;5.10;;;;;;;3.20;94.21;100802.59;186243;1234;44265;-87
2023/02/19 18:57:54;;;;;;;8.40;5.60;;;;;;;3.17;94.06;100811.82;186029;1234;59420;-87
2023/02/19 19:01:57;;;;;;;6.10;3.80;;;;;;;3.07;94.33;100811.36;186192;1233;43868;-88
2023/02/19 19:05:59;;;;;;;7.30;3.40;;;;;;;3.00;94.86;100806.55;186143;1233;43987;-89
2023/02/19 19:10:04;;;;;;;8.10;5.00;;;;;;;2.94;95.28;100800.16;186353;1234;43828;-88
2023/02/19 19:14:08;;;;;;;6.80;4.40;;;;;;;2.88;95.38;100799.02;185987;1234;43778;-88
2023/02/19 19:18:11;;;;;;;6.90;3.20;;;;;;;2.88;95.37;100799.54;186034;1233;56857;-88
2023/02/19 19:22:15;;;;;;;7.60;4.30;;;;;;;2.88;94.93;100803.91;186217;1235;43993;-88
2023/02/19 19:26:18;;;;;;;7.60;3.40;;;;;;;2.87;94.93;100815.89;186262;1234;43878;-89
2023/02/19 19:30:21;;;;;;;7.70;5.80;;;;;;;2.87;95.31;100820.09;186208;1234;43851;-89
2023/02/19 19:34:23;;;;;;;5.60;4.20;;;;;;;2.85;95.45;100823.98;186433;1233;44574;-89
2023/02/19 19:38:27;;;;;;;12.20;5.10;;;;;;;2.83;94.90;100830.20;185972;1234;59728;-90
2023/02/19 19:42:30;;;;;;;6.20;3.80;;;;;;;2.85;94.30;100829.63;186361;1234;43822;-87
2023/02/19 19:46:33;;;;;;;7.40;4.10;;;;;;;2.84;94.62;100830.49;186086;1233;43888;-87
2023/02/19 19:50:35;;;;;;;12.80;4.60;;;;;;;2.82;94.17;100828.84;186066;1233;43951;-89
2023/02/19 19:54:41;;;;;;;3.90;2.80;;;;;;;2.79;93.98;100835.09;186093;1233;43955;-89
2023/02/19 19:58:44;;;;;;;7.60;3.80;;;;;;;2.73;94.70;100833.05;186033;1234;58064;-86
2023/02/19 20:02:46;;;;;;;6.60;4.00;;;;;;;2.68;94.99;100837.98;186049;1233;43654;-89
2023/02/19 20:06:49;;;;;;;8.70;3.80;;;;;;;2.65;95.27;100843.02;185969;1234;43985;-88
2023/02/19 20:10:51;;;;;;;12.70;5.00;;;;;;;2.59;95.79;100843.95;186126;1234;43914;-86
2023/02/19 20:14:54;;;;;;;6.20;3.30;;;;;;;2.59;95.82;100844.30;186206;1234;43729;-86
2023/02/19 20:18:56;;;;;;;6.80;2.60;;;;;;;2.57;96.11;100836.86;186326;1234;58086;-85